sensor_id;sensor_type;location;lat;lon;timestamp;temperature;humidity
39849;DHT22;25518;47.878;15.914;2023-12-28T00:02:26;0.60;99.90
39849;DHT22;25518;47.878;15.914;2023-12-28T00:05:17;0.70;99.90
39849;DHT22;25518;47.878;15.914;2023-12-28T00:08:08;0.70;99.90
39849;DHT22;25518;47.878;15.914;2023-12-28T00:11:00;0.70;99.90
39849;DHT22;25518;47.878;15.914;2023-12-28T00:13:51;0.70;99.90
39849;DHT22;25518;47.878;15.914;2023-12-28T00:16:42;0.80;99.90
39849;DHT22;25518;47.878;15.914;2023-12-28T00:19:34;0.70;99.90
39849;DHT22;25518;47.878;15.914;2023-12-28T00:22:25;0.70;99.90
39849;DHT22;25518;47.878;15.914;2023-12-28T00:25:16;0.50;99.90
39849;DHT22;25518;47.878;15.914;2023-12-28T00:28:08;0.00;99.90
39849;DHT22;25518;47.878;15.914;2023-12-28T00:30:59;0.50;99.90
39849;DHT22;25518;47.878;15.914;2023-12-28T00:33:50;0.20;99.90
39849;DHT22;25518;47.878;15.914;2023-12-28T00:36:42;0.40;99.90
39849;DHT22;25518;47.878;15.914;2023-12-28T00:39:33;0.20;99.90
39849;DHT22;25518;47.878;15.914;2023-12-28T00:42:26;0.20;99.90
39849;DHT22;25518;47.878;15.914;2023-12-28T00:45:18;0.30;99.90
39849;DHT22;25518;47.878;15.914;2023-12-28T00:48:09;0.40;99.90
39849;DHT22;25518;47.878;15.914;2023-12-28T00:51:00;0.40;99.90
39849;DHT22;25518;47.878;15.914;2023-12-28T00:53:51;0.30;99.90
39849;DHT22;25518;47.878;15.914;2023-12-28T00:56:43;0.30;99.90
39849;DHT22;25518;47.878;15.914;2023-12-28T00:59:34;0.20;99.90
39849;DHT22;25518;47.878;15.914;2023-12-28T01:02:26;0.30;99.90
39849;DHT22;25518;47.878;15.914;2023-12-28T01:05:18;0.10;99.90
39849;DHT22;25518;47.878;15.914;2023-12-28T01:08:13;0.00;99.90
39849;DHT22;25518;47.878;15.914;2023-12-28T01:11:04;0.00;99.90
39849;DHT22;25518;47.878;15.914;2023-12-28T01:13:55;-0.20;99.90
39849;DHT22;25518;47.878;15.914;2023-12-28T01:16:49;0.00;99.90
39849;DHT22;25518;47.878;15.914;2023-12-28T01:19:40;-0.10;99.90
39849;DHT22;25518;47.878;15.914;2023-12-28T01:22:32;0.00;99.90
39849;DHT22;25518;47.878;15.914;2023-12-28T01:25:23;0.10;99.90
39849;DHT22;25518;47.878;15.914;2023-12-28T01:28:14;0.10;99.90
39849;DHT22;25518;47.878;15.914;2023-12-28T01:31:06;-0.10;99.90
39849;DHT22;25518;47.878;15.914;2023-12-28T01:33:57;-0.10;99.90
39849;DHT22;25518;47.878;15.914;2023-12-28T01:36:50;-0.10;99.90
39849;DHT22;25518;47.878;15.914;2023-12-28T01:39:42;0.10;99.90
39849;DHT22;25518;47.878;15.914;2023-12-28T01:42:33;0.20;99.90
39849;DHT22;25518;47.878;15.914;2023-12-28T01:45:26;0.10;99.90
39849;DHT22;25518;47.878;15.914;2023-12-28T01:48:18;0.10;99.90
39849;DHT22;25518;47.878;15.914;2023-12-28T01:51:10;0.20;99.90
39849;DHT22;25518;47.878;15.914;2023-12-28T01:54:03;0.20;99.90
39849;DHT22;25518;47.878;15.914;2023-12-28T01:56:54;0.00;99.90
39849;DHT22;25518;47.878;15.914;2023-12-28T01:59:46;0.00;99.90
39849;DHT22;25518;47.878;15.914;2023-12-28T02:02:38;-0.40;99.90
39849;DHT22;25518;47.878;15.914;2023-12-28T02:05:30;-0.30;99.90
39849;DHT22;25518;47.878;15.914;2023-12-28T02:08:21;-0.30;99.90
39849;DHT22;25518;47.878;15.914;2023-12-28T02:11:13;-0.40;99.90
39849;DHT22;25518;47.878;15.914;2023-12-28T02:14:04;-1.90;99.90
39849;DHT22;25518;47.878;15.914;2023-12-28T02:17:06;-0.40;99.90
39849;DHT22;25518;47.878;15.914;2023-12-28T02:20:02;-0.50;99.90
39849;DHT22;25518;47.878;15.914;2023-12-28T02:22:57;-0.30;99.90
39849;DHT22;25518;47.878;15.914;2023-12-28T02:25:49;-0.30;99.90
39849;DHT22;25518;47.878;15.914;2023-12-28T02:28:43;-0.40;99.90
39849;DHT22;25518;47.878;15.914;2023-12-28T02:31:42;-0.40;99.90
39849;DHT22;25518;47.878;15.914;2023-12-28T02:34:38;-0.60;99.90
39849;DHT22;25518;47.878;15.914;2023-12-28T02:37:34;-1.30;99.90
39849;DHT22;25518;47.878;15.914;2023-12-28T02:40:26;-0.50;99.90
39849;DHT22;25518;47.878;15.914;2023-12-28T02:43:18;-0.40;99.90
39849;DHT22;25518;47.878;15.914;2023-12-28T02:46:10;-0.30;99.90
39849;DHT22;25518;47.878;15.914;2023-12-28T02:49:02;-0.50;99.90
39849;DHT22;25518;47.878;15.914;2023-12-28T02:51:53;-0.40;99.90
39849;DHT22;25518;47.878;15.914;2023-12-28T02:54:44;-0.40;99.90
39849;DHT22;25518;47.878;15.914;2023-12-28T02:57:35;-0.50;99.90
39849;DHT22;25518;47.878;15.914;2023-12-28T03:00:29;-0.50;99.90
39849;DHT22;25518;47.878;15.914;2023-12-28T03:03:20;-0.60;99.90
39849;DHT22;25518;47.878;15.914;2023-12-28T03:06:11;-0.90;99.90
39849;DHT22;25518;47.878;15.914;2023-12-28T03:09:03;-0.40;99.90
39849;DHT22;25518;47.878;15.914;2023-12-28T03:11:54;-0.40;99.90
39849;DHT22;25518;47.878;15.914;2023-12-28T03:14:45;-0.40;99.90
39849;DHT22;25518;47.878;15.914;2023-12-28T03:17:37;-0.50;99.90
39849;DHT22;25518;47.878;15.914;2023-12-28T03:20:28;-0.60;99.90
39849;DHT22;25518;47.878;15.914;2023-12-28T03:23:20;-0.70;99.90
39849;DHT22;25518;47.878;15.914;2023-12-28T03:26:11;-0.80;99.90
39849;DHT22;25518;47.878;15.914;2023-12-28T03:29:02;-1.10;99.90
39849;DHT22;25518;47.878;15.914;2023-12-28T03:31:54;-1.20;99.90
39849;DHT22;25518;47.878;15.914;2023-12-28T03:34:45;-1.00;99.90
39849;DHT22;25518;47.878;15.914;2023-12-28T03:37:36;-0.80;99.90
39849;DHT22;25518;47.878;15.914;2023-12-28T03:40:28;-0.80;99.90
39849;DHT22;25518;47.878;15.914;2023-12-28T03:43:19;-0.90;99.90
39849;DHT22;25518;47.878;15.914;2023-12-28T03:46:10;-0.80;99.90
39849;DHT22;25518;47.878;15.914;2023-12-28T03:49:02;-1.10;99.90
39849;DHT22;25518;47.878;15.914;2023-12-28T03:51:53;-1.20;99.90
39849;DHT22;25518;47.878;15.914;2023-12-28T03:54:44;-1.00;99.90
39849;DHT22;25518;47.878;15.914;2023-12-28T03:57:36;-1.30;99.90
39849;DHT22;25518;47.878;15.914;2023-12-28T04:00:27;-0.80;99.90
39849;DHT22;25518;47.878;15.914;2023-12-28T04:03:19;-1.10;99.90
39849;DHT22;25518;47.878;15.914;2023-12-28T04:06:10;-0.80;99.90
39849;DHT22;25518;47.878;15.914;2023-12-28T04:09:01;-0.80;99.90
39849;DHT22;25518;47.878;15.914;2023-12-28T04:11:53;-1.90;99.90
39849;DHT22;25518;47.878;15.914;2023-12-28T04:14:45;-0.90;99.90
39849;DHT22;25518;47.878;15.914;2023-12-28T04:17:36;-0.90;99.90
39849;DHT22;25518;47.878;15.914;2023-12-28T04:20:27;-1.50;99.90
39849;DHT22;25518;47.878;15.914;2023-12-28T04:23:19;-1.00;99.90
39849;DHT22;25518;47.878;15.914;2023-12-28T04:26:10;-1.10;99.90
39849;DHT22;25518;47.878;15.914;2023-12-28T04:29:01;-1.10;99.90
39849;DHT22;25518;47.878;15.914;2023-12-28T04:31:53;-1.00;99.90
39849;DHT22;25518;47.878;15.914;2023-12-28T04:34:44;-1.10;99.90
39849;DHT22;25518;47.878;15.914;2023-12-28T04:37:36;-1.10;99.90
39849;DHT22;25518;47.878;15.914;2023-12-28T04:40:28;-1.10;99.90
39849;DHT22;25518;47.878;15.914;2023-12-28T04:43:19;-1.10;99.90
39849;DHT22;25518;47.878;15.914;2023-12-28T04:46:11;-1.50;99.90
39849;DHT22;25518;47.878;15.914;2023-12-28T04:49:02;-0.70;99.90
39849;DHT22;25518;47.878;15.914;2023-12-28T04:51:53;-0.60;99.90
39849;DHT22;25518;47.878;15.914;2023-12-28T04:54:45;-0.70;99.90
39849;DHT22;25518;47.878;15.914;2023-12-28T04:57:36;-0.60;99.90
39849;DHT22;25518;47.878;15.914;2023-12-28T05:00:28;-0.40;99.90
39849;DHT22;25518;47.878;15.914;2023-12-28T05:03:20;-0.30;99.90
39849;DHT22;25518;47.878;15.914;2023-12-28T05:06:11;-0.30;99.90
39849;DHT22;25518;47.878;15.914;2023-12-28T05:09:03;-0.40;99.90
39849;DHT22;25518;47.878;15.914;2023-12-28T05:11:55;-0.50;99.90
39849;DHT22;25518;47.878;15.914;2023-12-28T05:14:47;-0.60;99.90
39849;DHT22;25518;47.878;15.914;2023-12-28T05:17:39;-0.50;99.90
39849;DHT22;25518;47.878;15.914;2023-12-28T05:20:30;-0.80;99.90
39849;DHT22;25518;47.878;15.914;2023-12-28T05:23:21;-0.80;99.90
39849;DHT22;25518;47.878;15.914;2023-12-28T05:26:13;-0.80;99.90
39849;DHT22;25518;47.878;15.914;2023-12-28T05:29:04;-0.90;99.90
39849;DHT22;25518;47.878;15.914;2023-12-28T05:31:55;-1.10;99.90
39849;DHT22;25518;47.878;15.914;2023-12-28T05:34:47;-1.10;99.90
39849;DHT22;25518;47.878;15.914;2023-12-28T05:37:40;-1.20;99.90
39849;DHT22;25518;47.878;15.914;2023-12-28T05:40:32;-1.10;99.90
39849;DHT22;25518;47.878;15.914;2023-12-28T05:43:23;-1.10;99.90
39849;DHT22;25518;47.878;15.914;2023-12-28T05:46:14;-1.00;99.90
39849;DHT22;25518;47.878;15.914;2023-12-28T05:49:06;-0.90;99.90
39849;DHT22;25518;47.878;15.914;2023-12-28T05:51:57;-1.50;99.90
39849;DHT22;25518;47.878;15.914;2023-12-28T05:54:49;-1.00;99.90
39849;DHT22;25518;47.878;15.914;2023-12-28T05:57:40;-1.00;99.90
39849;DHT22;25518;47.878;15.914;2023-12-28T06:00:32;-1.10;99.90
39849;DHT22;25518;47.878;15.914;2023-12-28T06:03:23;-1.10;99.90
39849;DHT22;25518;47.878;15.914;2023-12-28T06:06:19;-1.10;99.90
39849;DHT22;25518;47.878;15.914;2023-12-28T06:09:11;-1.10;99.90
39849;DHT22;25518;47.878;15.914;2023-12-28T06:12:03;-1.30;99.90
39849;DHT22;25518;47.878;15.914;2023-12-28T06:14:54;-1.30;99.90
39849;DHT22;25518;47.878;15.914;2023-12-28T06:17:46;-1.10;99.90
39849;DHT22;25518;47.878;15.914;2023-12-28T06:20:37;-1.20;99.90
39849;DHT22;25518;47.878;15.914;2023-12-28T06:23:28;-1.20;99.90
39849;DHT22;25518;47.878;15.914;2023-12-28T06:26:20;-1.30;99.90
39849;DHT22;25518;47.878;15.914;2023-12-28T06:29:11;-1.20;99.90
39849;DHT22;25518;47.878;15.914;2023-12-28T06:32:03;-1.30;99.90
39849;DHT22;25518;47.878;15.914;2023-12-28T06:34:54;-1.10;99.90
39849;DHT22;25518;47.878;15.914;2023-12-28T06:37:46;-1.10;99.90
39849;DHT22;25518;47.878;15.914;2023-12-28T06:40:37;-0.80;99.90
39849;DHT22;25518;47.878;15.914;2023-12-28T06:43:28;-0.60;99.90
39849;DHT22;25518;47.878;15.914;2023-12-28T06:46:20;-0.40;99.90
39849;DHT22;25518;47.878;15.914;2023-12-28T06:49:11;-0.40;99.90
39849;DHT22;25518;47.878;15.914;2023-12-28T06:52:03;-0.30;99.90
39849;DHT22;25518;47.878;15.914;2023-12-28T06:54:54;-0.40;99.90
39849;DHT22;25518;47.878;15.914;2023-12-28T06:57:46;-0.10;99.90
39849;DHT22;25518;47.878;15.914;2023-12-28T07:00:37;-0.10;99.90
39849;DHT22;25518;47.878;15.914;2023-12-28T07:03:28;-0.10;99.90
39849;DHT22;25518;47.878;15.914;2023-12-28T07:06:23;-0.20;99.90
39849;DHT22;25518;47.878;15.914;2023-12-28T07:09:14;-0.20;99.90
39849;DHT22;25518;47.878;15.914;2023-12-28T07:12:06;-0.10;99.90
39849;DHT22;25518;47.878;15.914;2023-12-28T07:14:57;-0.20;99.90
39849;DHT22;25518;47.878;15.914;2023-12-28T07:17:49;-0.20;99.90
39849;DHT22;25518;47.878;15.914;2023-12-28T07:20:40;-0.10;99.90
39849;DHT22;25518;47.878;15.914;2023-12-28T07:23:31;0.10;99.90
39849;DHT22;25518;47.878;15.914;2023-12-28T07:26:23;0.20;99.90
39849;DHT22;25518;47.878;15.914;2023-12-28T07:29:14;0.30;99.90
39849;DHT22;25518;47.878;15.914;2023-12-28T07:32:06;0.20;99.90
39849;DHT22;25518;47.878;15.914;2023-12-28T07:34:59;0.20;99.90
39849;DHT22;25518;47.878;15.914;2023-12-28T07:37:51;0.20;99.90
39849;DHT22;25518;47.878;15.914;2023-12-28T07:40:42;0.20;99.90
39849;DHT22;25518;47.878;15.914;2023-12-28T07:43:34;0.30;99.90
39849;DHT22;25518;47.878;15.914;2023-12-28T07:46:25;0.30;99.90
39849;DHT22;25518;47.878;15.914;2023-12-28T07:49:16;-0.10;99.90
39849;DHT22;25518;47.878;15.914;2023-12-28T07:52:08;0.20;99.90
39849;DHT22;25518;47.878;15.914;2023-12-28T07:54:59;0.30;99.90
39849;DHT22;25518;47.878;15.914;2023-12-28T07:57:51;0.20;99.90
39849;DHT22;25518;47.878;15.914;2023-12-28T08:00:42;0.20;99.90
39849;DHT22;25518;47.878;15.914;2023-12-28T08:03:34;0.20;99.90
39849;DHT22;25518;47.878;15.914;2023-12-28T08:06:25;0.30;99.90
39849;DHT22;25518;47.878;15.914;2023-12-28T08:09:16;0.10;99.90
39849;DHT22;25518;47.878;15.914;2023-12-28T08:12:08;-0.20;99.90
39849;DHT22;25518;47.878;15.914;2023-12-28T08:14:59;-0.40;99.90
39849;DHT22;25518;47.878;15.914;2023-12-28T08:17:51;-0.60;99.90
39849;DHT22;25518;47.878;15.914;2023-12-28T08:20:42;-0.10;99.90
39849;DHT22;25518;47.878;15.914;2023-12-28T08:23:34;0.10;99.90
39849;DHT22;25518;47.878;15.914;2023-12-28T08:26:25;0.10;99.90
39849;DHT22;25518;47.878;15.914;2023-12-28T08:29:17;0.20;99.90
39849;DHT22;25518;47.878;15.914;2023-12-28T08:32:09;0.40;99.90
39849;DHT22;25518;47.878;15.914;2023-12-28T08:35:01;0.40;99.90
39849;DHT22;25518;47.878;15.914;2023-12-28T08:37:53;0.30;99.90
39849;DHT22;25518;47.878;15.914;2023-12-28T08:40:45;0.10;99.90
39849;DHT22;25518;47.878;15.914;2023-12-28T08:43:37;0.00;99.90
39849;DHT22;25518;47.878;15.914;2023-12-28T13:14:14;5.30;99.90
39849;DHT22;25518;47.878;15.914;2023-12-28T13:17:05;5.30;99.90
39849;DHT22;25518;47.878;15.914;2023-12-28T13:19:57;5.40;99.90
39849;DHT22;25518;47.878;15.914;2023-12-28T13:22:48;5.40;99.90
39849;DHT22;25518;47.878;15.914;2023-12-28T13:25:39;5.40;99.90
39849;DHT22;25518;47.878;15.914;2023-12-28T13:28:31;5.40;99.90
39849;DHT22;25518;47.878;15.914;2023-12-28T13:31:22;5.50;99.90
39849;DHT22;25518;47.878;15.914;2023-12-28T13:34:13;5.50;99.90
39849;DHT22;25518;47.878;15.914;2023-12-28T13:37:05;5.60;99.90
39849;DHT22;25518;47.878;15.914;2023-12-28T13:39:56;5.80;99.90
39849;DHT22;25518;47.878;15.914;2023-12-28T13:42:48;5.70;99.90
39849;DHT22;25518;47.878;15.914;2023-12-28T13:45:40;5.80;99.90
39849;DHT22;25518;47.878;15.914;2023-12-28T13:48:31;5.80;99.90
39849;DHT22;25518;47.878;15.914;2023-12-28T13:51:23;5.70;99.90
39849;DHT22;25518;47.878;15.914;2023-12-28T13:54:14;2.90;99.90
39849;DHT22;25518;47.878;15.914;2023-12-28T13:57:05;6.00;99.90
39849;DHT22;25518;47.878;15.914;2023-12-28T13:59:57;5.90;99.90
39849;DHT22;25518;47.878;15.914;2023-12-28T14:02:51;5.80;99.90
39849;DHT22;25518;47.878;15.914;2023-12-28T14:05:44;5.50;99.90
39849;DHT22;25518;47.878;15.914;2023-12-28T14:08:35;5.60;99.90
39849;DHT22;25518;47.878;15.914;2023-12-28T14:11:27;5.60;99.90
39849;DHT22;25518;47.878;15.914;2023-12-28T14:14:19;5.40;99.90
39849;DHT22;25518;47.878;15.914;2023-12-28T14:17:11;5.30;99.90
39849;DHT22;25518;47.878;15.914;2023-12-28T14:20:03;5.40;99.90
39849;DHT22;25518;47.878;15.914;2023-12-28T14:22:55;5.20;99.90
39849;DHT22;25518;47.878;15.914;2023-12-28T14:25:46;5.10;99.90
39849;DHT22;25518;47.878;15.914;2023-12-28T14:28:44;5.10;99.90
39849;DHT22;25518;47.878;15.914;2023-12-28T14:31:36;5.20;99.90
39849;DHT22;25518;47.878;15.914;2023-12-28T14:34:27;5.00;99.90
39849;DHT22;25518;47.878;15.914;2023-12-28T14:37:22;4.90;99.90
39849;DHT22;25518;47.878;15.914;2023-12-28T14:40:13;4.80;99.90
39849;DHT22;25518;47.878;15.914;2023-12-28T14:43:04;4.50;99.90
39849;DHT22;25518;47.878;15.914;2023-12-28T14:45:56;4.40;99.90
39849;DHT22;25518;47.878;15.914;2023-12-28T14:48:47;4.30;99.90
39849;DHT22;25518;47.878;15.914;2023-12-28T14:51:38;4.30;99.90
39849;DHT22;25518;47.878;15.914;2023-12-28T14:54:30;4.30;99.90
39849;DHT22;25518;47.878;15.914;2023-12-28T14:57:22;4.10;99.90
39849;DHT22;25518;47.878;15.914;2023-12-28T15:00:14;4.00;99.90
39849;DHT22;25518;47.878;15.914;2023-12-28T15:03:06;4.00;99.90
39849;DHT22;25518;47.878;15.914;2023-12-28T15:05:58;3.90;99.90
39849;DHT22;25518;47.878;15.914;2023-12-28T15:08:49;3.70;99.90
39849;DHT22;25518;47.878;15.914;2023-12-28T15:11:41;3.70;99.90
39849;DHT22;25518;47.878;15.914;2023-12-28T15:14:37;3.50;99.90
39849;DHT22;25518;47.878;15.914;2023-12-28T15:17:29;3.50;99.90
39849;DHT22;25518;47.878;15.914;2023-12-28T15:20:22;1.40;99.90
39849;DHT22;25518;47.878;15.914;2023-12-28T15:23:15;3.30;99.90
39849;DHT22;25518;47.878;15.914;2023-12-28T15:26:06;3.20;99.90
39849;DHT22;25518;47.878;15.914;2023-12-28T15:28:58;3.00;99.90
39849;DHT22;25518;47.878;15.914;2023-12-28T15:31:49;2.90;99.90
39849;DHT22;25518;47.878;15.914;2023-12-28T15:34:41;2.90;99.90
39849;DHT22;25518;47.878;15.914;2023-12-28T15:37:33;2.90;99.90
39849;DHT22;25518;47.878;15.914;2023-12-28T15:40:24;2.90;99.90
39849;DHT22;25518;47.878;15.914;2023-12-28T15:43:15;2.90;99.90
39849;DHT22;25518;47.878;15.914;2023-12-28T15:46:09;2.90;99.90
39849;DHT22;25518;47.878;15.914;2023-12-28T15:49:01;2.70;99.90
39849;DHT22;25518;47.878;15.914;2023-12-28T15:51:52;2.50;99.90
39849;DHT22;25518;47.878;15.914;2023-12-28T15:54:44;2.50;99.90
39849;DHT22;25518;47.878;15.914;2023-12-28T15:57:35;2.50;99.90
39849;DHT22;25518;47.878;15.914;2023-12-28T16:00:27;2.40;99.90
39849;DHT22;25518;47.878;15.914;2023-12-28T16:03:18;2.50;99.90
39849;DHT22;25518;47.878;15.914;2023-12-28T16:06:09;2.60;99.90
39849;DHT22;25518;47.878;15.914;2023-12-28T16:09:02;1.90;99.90
39849;DHT22;25518;47.878;15.914;2023-12-28T16:11:56;2.50;99.90
39849;DHT22;25518;47.878;15.914;2023-12-28T16:14:48;2.40;99.90
39849;DHT22;25518;47.878;15.914;2023-12-28T16:17:39;2.40;99.90
39849;DHT22;25518;47.878;15.914;2023-12-28T16:20:31;2.50;99.90
39849;DHT22;25518;47.878;15.914;2023-12-28T16:23:24;1.60;99.90
39849;DHT22;25518;47.878;15.914;2023-12-28T16:26:15;2.50;99.90
39849;DHT22;25518;47.878;15.914;2023-12-28T16:29:09;2.40;99.90
39849;DHT22;25518;47.878;15.914;2023-12-28T16:32:00;2.30;99.90
39849;DHT22;25518;47.878;15.914;2023-12-28T16:34:52;2.20;99.90
39849;DHT22;25518;47.878;15.914;2023-12-28T16:37:43;2.20;99.90
39849;DHT22;25518;47.878;15.914;2023-12-28T16:40:35;2.30;99.90
39849;DHT22;25518;47.878;15.914;2023-12-28T16:43:28;2.40;99.90
39849;DHT22;25518;47.878;15.914;2023-12-28T16:46:21;2.20;99.90
39849;DHT22;25518;47.878;15.914;2023-12-28T16:49:12;2.10;99.90
39849;DHT22;25518;47.878;15.914;2023-12-28T16:52:05;2.10;99.90
39849;DHT22;25518;47.878;15.914;2023-12-28T16:54:58;2.00;99.90
39849;DHT22;25518;47.878;15.914;2023-12-28T16:57:49;2.00;99.90
39849;DHT22;25518;47.878;15.914;2023-12-28T17:00:42;2.00;99.90
39849;DHT22;25518;47.878;15.914;2023-12-28T17:03:33;1.90;99.90
39849;DHT22;25518;47.878;15.914;2023-12-28T17:06:25;1.80;99.90
39849;DHT22;25518;47.878;15.914;2023-12-28T17:09:16;1.70;99.90
39849;DHT22;25518;47.878;15.914;2023-12-28T17:12:13;1.80;99.90
39849;DHT22;25518;47.878;15.914;2023-12-28T17:15:10;1.80;99.90
39849;DHT22;25518;47.878;15.914;2023-12-28T17:18:02;1.70;99.90
39849;DHT22;25518;47.878;15.914;2023-12-28T17:20:54;1.80;99.90
39849;DHT22;25518;47.878;15.914;2023-12-28T17:23:51;1.80;99.90
39849;DHT22;25518;47.878;15.914;2023-12-28T17:26:47;1.90;99.90
39849;DHT22;25518;47.878;15.914;2023-12-28T17:29:43;2.00;99.90
39849;DHT22;25518;47.878;15.914;2023-12-28T17:32:37;1.90;99.90
39849;DHT22;25518;47.878;15.914;2023-12-28T17:35:29;1.60;99.90
39849;DHT22;25518;47.878;15.914;2023-12-28T17:38:21;1.70;99.90
39849;DHT22;25518;47.878;15.914;2023-12-28T17:41:13;1.80;99.90
39849;DHT22;25518;47.878;15.914;2023-12-28T17:44:09;1.90;99.90
39849;DHT22;25518;47.878;15.914;2023-12-28T17:47:07;0.10;99.90
39849;DHT22;25518;47.878;15.914;2023-12-28T17:50:06;1.90;99.90
39849;DHT22;25518;47.878;15.914;2023-12-28T17:53:01;1.60;99.90
39849;DHT22;25518;47.878;15.914;2023-12-28T17:55:52;1.60;99.90
39849;DHT22;25518;47.878;15.914;2023-12-28T17:58:44;1.70;99.90
39849;DHT22;25518;47.878;15.914;2023-12-28T18:01:36;1.70;99.90
39849;DHT22;25518;47.878;15.914;2023-12-28T18:04:27;1.90;99.90
39849;DHT22;25518;47.878;15.914;2023-12-28T18:07:20;1.90;99.90
39849;DHT22;25518;47.878;15.914;2023-12-28T18:10:11;1.90;99.90
39849;DHT22;25518;47.878;15.914;2023-12-28T18:13:02;1.80;99.90
39849;DHT22;25518;47.878;15.914;2023-12-28T18:15:54;1.90;99.90
39849;DHT22;25518;47.878;15.914;2023-12-28T18:18:47;1.70;99.90
39849;DHT22;25518;47.878;15.914;2023-12-28T18:21:40;1.70;99.90
39849;DHT22;25518;47.878;15.914;2023-12-28T18:24:32;1.80;99.90
39849;DHT22;25518;47.878;15.914;2023-12-28T18:27:24;1.70;99.90
39849;DHT22;25518;47.878;15.914;2023-12-28T18:30:15;1.60;99.90
39849;DHT22;25518;47.878;15.914;2023-12-28T18:33:07;1.80;99.90
39849;DHT22;25518;47.878;15.914;2023-12-28T18:35:58;1.80;99.90
39849;DHT22;25518;47.878;15.914;2023-12-28T18:38:51;1.40;99.90
39849;DHT22;25518;47.878;15.914;2023-12-28T18:41:42;1.70;99.90
39849;DHT22;25518;47.878;15.914;2023-12-28T18:44:33;1.80;99.90
39849;DHT22;25518;47.878;15.914;2023-12-28T18:47:27;1.80;99.90
39849;DHT22;25518;47.878;15.914;2023-12-28T18:50:19;1.90;99.90
39849;DHT22;25518;47.878;15.914;2023-12-28T18:53:11;1.30;99.90
39849;DHT22;25518;47.878;15.914;2023-12-28T18:56:02;1.80;99.90
39849;DHT22;25518;47.878;15.914;2023-12-28T18:58:53;1.20;99.90
39849;DHT22;25518;47.878;15.914;2023-12-28T19:01:45;1.80;99.90
39849;DHT22;25518;47.878;15.914;2023-12-28T19:04:37;1.80;99.90
39849;DHT22;25518;47.878;15.914;2023-12-28T19:07:29;1.90;99.90
39849;DHT22;25518;47.878;15.914;2023-12-28T19:10:21;1.90;99.90
39849;DHT22;25518;47.878;15.914;2023-12-28T19:13:13;2.00;99.90
39849;DHT22;25518;47.878;15.914;2023-12-28T19:16:04;1.80;99.90
39849;DHT22;25518;47.878;15.914;2023-12-28T19:18:56;1.80;99.90
39849;DHT22;25518;47.878;15.914;2023-12-28T19:21:48;1.80;99.90
39849;DHT22;25518;47.878;15.914;2023-12-28T19:24:40;1.80;99.90
39849;DHT22;25518;47.878;15.914;2023-12-28T19:27:31;1.60;99.90
39849;DHT22;25518;47.878;15.914;2023-12-28T19:30:23;1.80;99.90
39849;DHT22;25518;47.878;15.914;2023-12-28T19:33:15;1.80;99.90
39849;DHT22;25518;47.878;15.914;2023-12-28T19:36:06;1.90;99.90
39849;DHT22;25518;47.878;15.914;2023-12-28T19:38:58;1.90;99.90
39849;DHT22;25518;47.878;15.914;2023-12-28T19:41:49;2.00;99.90
39849;DHT22;25518;47.878;15.914;2023-12-28T19:44:41;1.90;99.90
39849;DHT22;25518;47.878;15.914;2023-12-28T19:47:34;1.90;99.90
39849;DHT22;25518;47.878;15.914;2023-12-28T19:50:26;1.90;99.90
39849;DHT22;25518;47.878;15.914;2023-12-28T19:53:17;1.90;99.90
39849;DHT22;25518;47.878;15.914;2023-12-28T19:56:09;1.90;99.90
39849;DHT22;25518;47.878;15.914;2023-12-28T19:59:00;0.50;99.90
39849;DHT22;25518;47.878;15.914;2023-12-28T20:01:52;1.90;99.90
39849;DHT22;25518;47.878;15.914;2023-12-28T20:04:47;1.90;99.90
39849;DHT22;25518;47.878;15.914;2023-12-28T20:07:39;1.90;99.90
39849;DHT22;25518;47.878;15.914;2023-12-28T20:10:33;1.80;99.90
39849;DHT22;25518;47.878;15.914;2023-12-28T20:13:24;1.80;99.90
39849;DHT22;25518;47.878;15.914;2023-12-28T20:16:16;1.80;99.90
39849;DHT22;25518;47.878;15.914;2023-12-28T20:19:08;1.80;99.90
39849;DHT22;25518;47.878;15.914;2023-12-28T20:22:00;2.00;99.90
39849;DHT22;25518;47.878;15.914;2023-12-28T20:24:52;1.90;99.90
39849;DHT22;25518;47.878;15.914;2023-12-28T20:27:44;1.90;99.90
39849;DHT22;25518;47.878;15.914;2023-12-28T20:30:36;2.00;99.90
39849;DHT22;25518;47.878;15.914;2023-12-28T20:33:29;1.00;99.90
39849;DHT22;25518;47.878;15.914;2023-12-28T20:36:22;1.90;99.90
39849;DHT22;25518;47.878;15.914;2023-12-28T20:39:13;1.90;99.90
39849;DHT22;25518;47.878;15.914;2023-12-28T20:42:04;1.90;99.90
39849;DHT22;25518;47.878;15.914;2023-12-28T20:44:56;2.00;99.90
39849;DHT22;25518;47.878;15.914;2023-12-28T20:47:47;2.00;99.90
39849;DHT22;25518;47.878;15.914;2023-12-28T20:50:38;2.00;99.90
39849;DHT22;25518;47.878;15.914;2023-12-28T20:53:30;2.00;99.90
39849;DHT22;25518;47.878;15.914;2023-12-28T20:56:22;1.90;99.90
39849;DHT22;25518;47.878;15.914;2023-12-28T20:59:13;1.70;99.90
39849;DHT22;25518;47.878;15.914;2023-12-28T21:02:05;1.80;99.90
39849;DHT22;25518;47.878;15.914;2023-12-28T21:04:57;1.80;99.90
39849;DHT22;25518;47.878;15.914;2023-12-28T21:07:48;1.90;99.90
39849;DHT22;25518;47.878;15.914;2023-12-28T21:10:40;1.90;99.90
39849;DHT22;25518;47.878;15.914;2023-12-28T21:13:33;1.90;99.90
39849;DHT22;25518;47.878;15.914;2023-12-28T21:16:29;1.90;99.90
39849;DHT22;25518;47.878;15.914;2023-12-28T21:19:20;1.80;99.90
39849;DHT22;25518;47.878;15.914;2023-12-28T21:22:12;1.90;99.90
39849;DHT22;25518;47.878;15.914;2023-12-28T21:25:04;1.90;99.90
39849;DHT22;25518;47.878;15.914;2023-12-28T21:27:55;1.90;99.90
39849;DHT22;25518;47.878;15.914;2023-12-28T21:30:46;2.00;99.90
39849;DHT22;25518;47.878;15.914;2023-12-28T21:33:38;2.00;99.90
39849;DHT22;25518;47.878;15.914;2023-12-28T21:36:30;2.00;99.90
39849;DHT22;25518;47.878;15.914;2023-12-28T21:39:24;1.90;99.90
39849;DHT22;25518;47.878;15.914;2023-12-28T21:42:15;2.00;99.90
39849;DHT22;25518;47.878;15.914;2023-12-28T21:45:08;2.00;99.90
39849;DHT22;25518;47.878;15.914;2023-12-28T21:48:00;2.00;99.90
39849;DHT22;25518;47.878;15.914;2023-12-28T21:50:52;2.10;99.90
39849;DHT22;25518;47.878;15.914;2023-12-28T21:53:43;2.00;99.90
39849;DHT22;25518;47.878;15.914;2023-12-28T21:56:35;2.00;99.90
39849;DHT22;25518;47.878;15.914;2023-12-28T21:59:26;2.10;99.90
39849;DHT22;25518;47.878;15.914;2023-12-28T22:02:18;1.90;99.90
39849;DHT22;25518;47.878;15.914;2023-12-28T22:05:10;1.90;99.90
39849;DHT22;25518;47.878;15.914;2023-12-28T22:08:01;1.90;99.90
39849;DHT22;25518;47.878;15.914;2023-12-28T22:10:53;1.90;99.90
39849;DHT22;25518;47.878;15.914;2023-12-28T22:13:44;0.90;99.90
39849;DHT22;25518;47.878;15.914;2023-12-28T22:16:36;2.00;99.90
39849;DHT22;25518;47.878;15.914;2023-12-28T22:19:27;2.10;99.90
39849;DHT22;25518;47.878;15.914;2023-12-28T22:22:19;2.10;99.90
39849;DHT22;25518;47.878;15.914;2023-12-28T22:25:10;2.30;99.90
39849;DHT22;25518;47.878;15.914;2023-12-28T22:28:02;2.10;99.90